Time;durP1;ratioP1;P1;durP2;ratioP2;P2;SDS_P1;SDS_P2;PMS_P1;PMS_P2;Temp;Humidity;BMP_temperature;BMP_pressure;BME280_temperature;BME280_humidity;BME280_pressure;Samples;Min_cycle;Max_cycle;Signal;HPM_P1;HPM_P2
2022/07/10 05:00:37;;;;;;;9.13;8.20;;;19.30;97.20;;;;;;1714921;28;20190;-67
2022/07/10 05:01:27;;;;;;;8.98;8.18;;;19.30;97.20;;;;;;1714837;28;20212;-67
2022/07/10 05:02:19;;;;;;;8.70;8.00;;;19.40;97.20;;;;;;1714807;28;20733;-67
2022/07/10 05:03:10;;;;;;;8.68;7.82;;;19.30;97.20;;;;;;1714737;28;20797;-67
2022/07/10 05:04:02;;;;;;;8.33;7.47;;;19.40;97.20;;;;;;1714939;28;20288;-67
2022/07/10 05:04:53;;;;;;;8.00;7.30;;;19.40;97.20;;;;;;1714774;28;20209;-67
2022/07/10 05:05:45;;;;;;;8.30;7.13;;;19.30;97.20;;;;;;1714749;28;20707;-67
2022/07/10 05:06:35;;;;;;;8.52;7.43;;;19.30;97.20;;;;;;1714355;28;20661;-67
2022/07/10 05:07:27;;;;;;;8.90;7.30;;;19.40;97.20;;;;;;1714847;28;20653;-67
2022/07/10 05:08:18;;;;;;;7.60;6.85;;;19.30;97.20;;;;;;1714691;28;20684;-67
2022/07/10 05:09:09;;;;;;;8.03;7.40;;;19.30;97.20;;;;;;1714694;28;20586;-67
2022/07/10 05:10:00;;;;;;;10.07;7.97;;;19.30;97.20;;;;;;1709164;28;20199;-67
2022/07/10 05:10:52;;;;;;;7.30;6.80;;;19.40;97.20;;;;;;1708156;29;20202;-69
2022/07/10 05:11:43;;;;;;;7.13;6.57;;;19.40;97.20;;;;;;1708241;29;20584;-67
2022/07/10 05:12:34;;;;;;;7.20;6.53;;;19.40;97.20;;;;;;1708195;29;20229;-67
2022/07/10 05:13:25;;;;;;;7.75;6.97;;;19.40;97.20;;;;;;1707942;29;20245;-67
2022/07/10 05:14:17;;;;;;;6.37;5.77;;;19.40;97.20;;;;;;1708069;29;20245;-67
2022/07/10 05:15:09;;;;;;;7.95;6.82;;;19.40;97.20;;;;;;1708158;29;20442;-67
2022/07/10 05:16:03;;;;;;;7.70;6.13;;;19.40;97.20;;;;;;1708174;29;20227;-67
2022/07/10 05:16:53;;;;;;;6.90;6.30;;;19.40;97.20;;;;;;1707894;29;20257;-67
2022/07/10 05:17:45;;;;;;;6.60;6.10;;;19.40;97.20;;;;;;1708040;29;20234;-67
2022/07/10 05:18:36;;;;;;;7.35;6.55;;;19.40;97.20;;;;;;1708045;29;20202;-67
2022/07/10 05:19:27;;;;;;;6.20;5.63;;;19.40;97.20;;;;;;1708939;28;20293;-67
2022/07/10 05:20:18;;;;;;;7.40;6.70;;;19.40;97.20;;;;;;1714592;28;20204;-67
2022/07/10 05:21:10;;;;;;;6.57;6.07;;;19.40;97.20;;;;;;1714836;28;20297;-67
2022/07/10 05:22:01;;;;;;;7.20;6.50;;;19.40;97.20;;;;;;1714727;28;20441;-67
2022/07/10 05:22:52;;;;;;;6.75;5.97;;;19.40;97.20;;;;;;1714701;28;20880;-67
2022/07/10 05:23:44;;;;;;;7.33;6.67;;;19.40;97.20;;;;;;1714822;28;20272;-67
2022/07/10 05:24:35;;;;;;;6.65;6.00;;;19.40;97.20;;;;;;1714736;28;20233;-67
2022/07/10 05:25:30;;;;;;;6.13;5.63;;;19.40;97.20;;;;;;1714767;28;20289;-67
2022/07/10 05:26:20;;;;;;;7.68;6.45;;;19.40;97.20;;;;;;1714672;28;20210;-67
2022/07/10 05:27:12;;;;;;;7.57;6.40;;;19.40;97.20;;;;;;1714353;28;20280;-67
2022/07/10 05:28:04;;;;;;;6.72;6.13;;;19.40;97.20;;;;;;1714692;28;20205;-67
2022/07/10 05:28:55;;;;;;;7.10;6.38;;;19.40;97.20;;;;;;1714654;28;20202;-67
2022/07/10 05:29:47;;;;;;;6.80;6.18;;;19.40;97.20;;;;;;1711006;28;20206;-67
2022/07/10 05:30:38;;;;;;;5.97;5.53;;;19.40;97.20;;;;;;1707898;28;20242;-67
2022/07/10 05:31:31;;;;;;;7.30;6.70;;;19.40;97.20;;;;;;1708055;29;20206;-67
2022/07/10 05:32:22;;;;;;;6.30;5.70;;;19.40;97.20;;;;;;1707985;29;20206;-67
2022/07/10 05:33:13;;;;;;;5.97;5.47;;;19.40;97.20;;;;;;1707898;29;20222;-67
2022/07/10 05:34:05;;;;;;;5.97;5.47;;;19.40;97.20;;;;;;1708041;29;20209;-67
2022/07/10 05:34:58;;;;;;;5.50;5.10;;;19.40;97.20;;;;;;1707881;29;20207;-67
2022/07/10 05:35:50;;;;;;;5.22;4.82;;;19.40;97.20;;;;;;1707929;29;20208;-67
2022/07/10 05:36:41;;;;;;;5.88;5.28;;;19.40;97.20;;;;;;1707692;29;20214;-67
2022/07/10 05:37:32;;;;;;;6.80;5.53;;;19.40;97.20;;;;;;1708032;29;20203;-67
2022/07/10 05:38:23;;;;;;;7.20;5.20;;;19.40;97.20;;;;;;1707790;28;20217;-67
2022/07/10 05:39:15;;;;;;;5.77;5.27;;;19.40;97.20;;;;;;1707141;29;20386;-69
2022/07/10 05:40:07;;;;;;;5.57;5.10;;;19.40;97.20;;;;;;1708950;28;20202;-67
2022/07/10 05:40:58;;;;;;;5.43;4.75;;;19.40;97.20;;;;;;1707861;29;20206;-67
2022/07/10 05:41:49;;;;;;;5.28;4.78;;;19.40;97.20;;;;;;1707866;28;20217;-67
2022/07/10 05:42:41;;;;;;;6.13;5.07;;;19.40;97.20;;;;;;1707939;29;20264;-67
2022/07/10 05:43:32;;;;;;;5.28;4.75;;;19.40;97.20;;;;;;1707932;28;20226;-67
2022/07/10 05:44:24;;;;;;;5.40;5.00;;;19.40;97.20;;;;;;1707976;29;20309;-67
2022/07/10 05:45:14;;;;;;;6.60;4.97;;;19.40;97.20;;;;;;1707849;29;20221;-67
2022/07/10 05:46:06;;;;;;;7.30;5.00;;;19.40;97.20;;;;;;1707924;29;20289;-67
2022/07/10 05:46:59;;;;;;;5.07;4.70;;;19.40;97.20;;;;;;1707528;29;20453;-67
2022/07/10 05:47:51;;;;;;;5.22;4.70;;;19.40;97.20;;;;;;1707914;28;20210;-67
2022/07/10 05:48:42;;;;;;;4.68;4.35;;;19.40;97.20;;;;;;1708022;29;20213;-67
2022/07/10 05:49:33;;;;;;;4.90;4.00;;;19.40;97.20;;;;;;1708721;28;20289;-67
2022/07/10 05:50:24;;;;;;;5.00;4.50;;;19.40;97.20;;;;;;1714544;28;20213;-67
2022/07/10 05:51:16;;;;;;;4.80;4.40;;;19.40;97.20;;;;;;1714540;28;20286;-67
2022/07/10 05:52:07;;;;;;;4.53;4.05;;;19.40;97.20;;;;;;1714606;28;20221;-67
2022/07/10 05:52:59;;;;;;;4.97;4.47;;;19.40;97.20;;;;;;1714491;28;20859;-67
2022/07/10 05:53:50;;;;;;;5.25;4.03;;;19.40;97.20;;;;;;1714591;28;20624;-68
2022/07/10 05:54:42;;;;;;;3.67;3.37;;;19.40;97.20;;;;;;1714565;28;20313;-67
2022/07/10 05:55:32;;;;;;;4.70;3.75;;;19.50;97.20;;;;;;1714531;28;20260;-67
2022/07/10 05:56:24;;;;;;;4.73;4.27;;;19.50;97.20;;;;;;1714389;28;20260;-67
2022/07/10 05:57:15;;;;;;;6.00;4.00;;;19.50;97.20;;;;;;1714146;28;20205;-67
2022/07/10 05:58:07;;;;;;;5.90;3.53;;;19.50;97.20;;;;;;1714429;28;20285;-67
2022/07/10 05:58:57;;;;;;;4.22;3.83;;;19.50;97.20;;;;;;1714516;28;20568;-67
2022/07/10 05:59:49;;;;;;;3.97;3.20;;;19.50;97.20;;;;;;1711232;28;20646;-67
2022/07/10 06:00:42;;;;;;;3.72;3.40;;;19.50;97.20;;;;;;1707775;29;20206;-67
2022/07/10 06:01:34;;;;;;;3.83;3.53;;;19.60;97.20;;;;;;1707821;29;20206;-67
2022/07/10 06:02:26;;;;;;;4.05;3.45;;;19.60;97.20;;;;;;1707771;29;20214;-67
2022/07/10 06:03:18;;;;;;;5.55;3.28;;;19.60;97.20;;;;;;1707807;29;20222;-67
2022/07/10 06:04:08;;;;;;;3.90;2.90;;;19.60;97.20;;;;;;1707757;29;20218;-67
2022/07/10 06:05:00;;;;;;;5.43;3.27;;;19.70;97.20;;;;;;1707860;29;20282;-67
2022/07/10 06:05:51;;;;;;;4.57;3.38;;;19.70;97.20;;;;;;1707710;29;20202;-67
2022/07/10 06:06:43;;;;;;;3.80;3.33;;;19.70;97.20;;;;;;1707488;29;20281;-67
2022/07/10 06:07:34;;;;;;;4.38;3.55;;;19.80;97.20;;;;;;1707720;29;20226;-67
2022/07/10 06:08:25;;;;;;;4.20;3.27;;;19.80;97.20;;;;;;1707718;28;20237;-67
2022/07/10 06:09:16;;;;;;;4.35;2.90;;;19.80;97.20;;;;;;1707679;29;20455;-67
2022/07/10 06:10:09;;;;;;;7.83;2.77;;;19.80;97.20;;;;;;1712757;28;20285;-67
2022/07/10 06:10:59;;;;;;;3.50;2.92;;;19.90;97.20;;;;;;1714382;28;20221;-67
2022/07/10 06:11:52;;;;;;;5.45;3.00;;;19.90;97.20;;;;;;1714350;28;20233;-67
2022/07/10 06:12:43;;;;;;;4.85;2.60;;;19.90;97.20;;;;;;1714259;28;20202;-67
2022/07/10 06:13:35;;;;;;;5.90;2.57;;;19.90;97.20;;;;;;1714361;28;20233;-67
2022/07/10 06:14:26;;;;;;;4.32;2.78;;;19.90;97.20;;;;;;1714337;28;20202;-67
2022/07/10 06:15:18;;;;;;;4.10;2.90;;;20.00;97.20;;;;;;1714285;28;20205;-67
2022/07/10 06:16:08;;;;;;;3.10;2.80;;;20.00;97.20;;;;;;1714293;28;20198;-67
2022/07/10 06:17:00;;;;;;;3.70;3.00;;;20.00;97.20;;;;;;1714129;28;20300;-67
2022/07/10 06:17:55;;;;;;;3.33;2.90;;;20.00;97.20;;;;;;1714520;28;20677;-68
2022/07/10 06:18:47;;;;;;;5.28;2.78;;;20.00;97.20;;;;;;1714596;28;20206;-66
2022/07/10 06:19:38;;;;;;;2.83;2.55;;;20.00;97.20;;;;;;1712946;28;20206;-67
2022/07/10 06:20:30;;;;;;;5.03;2.57;;;20.10;97.20;;;;;;1707803;29;20306;-66
2022/07/10 06:21:22;;;;;;;4.05;2.70;;;20.00;97.20;;;;;;1707698;29;20450;-67
2022/07/10 06:22:32;;;;;;;3.20;2.53;;;20.10;97.20;;;;;;1707673;28;20206;-67
2022/07/10 06:23:24;;;;;;;3.35;2.60;;;20.10;97.20;;;;;;1707614;29;20288;-67
2022/07/10 06:24:14;;;;;;;3.90;2.40;;;20.10;97.20;;;;;;1707744;29;20210;-67
2022/07/10 06:25:09;;;;;;;7.80;2.97;;;20.10;97.20;;;;;;1707801;29;20293;-67
2022/07/10 06:25:59;;;;;;;4.72;2.60;;;20.10;97.20;;;;;;1707698;29;20206;-67
2022/07/10 06:26:51;;;;;;;2.33;2.13;;;20.10;97.20;;;;;;1707379;29;20285;-67
2022/07/10 06:27:42;;;;;;;3.78;2.10;;;20.10;97.20;;;;;;1707622;29;20599;-68
2022/07/10 06:28:35;;;;;;;4.13;2.37;;;20.10;97.20;;;;;;1707683;29;20325;-67
2022/07/10 06:29:26;;;;;;;5.03;2.35;;;20.10;97.20;;;;;;1707622;29;20301;-67
2022/07/10 06:30:18;;;;;;;6.10;2.57;;;20.10;97.20;;;;;;1713433;28;20190;-67
2022/07/10 06:31:08;;;;;;;4.00;2.05;;;20.10;97.20;;;;;;1714325;28;20549;-67
2022/07/10 06:32:00;;;;;;;2.47;2.00;;;20.10;97.20;;;;;;1714274;28;20632;-67
2022/07/10 06:32:53;;;;;;;3.35;2.38;;;20.10;97.20;;;;;;1714197;28;20214;-67
2022/07/10 06:33:44;;;;;;;2.38;1.90;;;20.10;97.20;;;;;;1714130;28;20241;-67
2022/07/10 06:34:35;;;;;;;3.10;2.05;;;20.10;97.20;;;;;;1714232;28;20210;-67
2022/07/10 06:35:27;;;;;;;4.37;1.90;;;20.10;97.20;;;;;;1714263;28;20237;-67
2022/07/10 06:36:18;;;;;;;2.60;2.28;;;20.10;97.20;;;;;;1714147;28;20221;-67
2022/07/10 06:37:08;;;;;;;3.40;2.30;;;20.10;97.20;;;;;;1714022;28;20284;-67
2022/07/10 06:38:00;;;;;;;2.70;2.50;;;20.10;97.20;;;;;;1712794;28;20272;-67
2022/07/10 06:38:51;;;;;;;4.43;2.60;;;20.10;97.20;;;;;;1707647;29;20206;-67
2022/07/10 06:39:43;;;;;;;2.77;2.50;;;20.10;97.20;;;;;;1707627;29;20233;-67
2022/07/10 06:40:36;;;;;;;3.47;2.22;;;20.10;97.20;;;;;;1707708;29;20692;-67
2022/07/10 06:41:28;;;;;;;2.85;2.38;;;20.10;97.20;;;;;;1707670;29;20202;-67
2022/07/10 06:42:18;;;;;;;4.70;2.60;;;20.10;97.20;;;;;;1707578;29;20206;-67
2022/07/10 06:43:10;;;;;;;2.40;2.10;;;20.10;97.20;;;;;;1707452;29;20306;-67
2022/07/10 06:44:02;;;;;;;3.75;2.55;;;20.10;97.20;;;;;;1707499;29;20914;-67
2022/07/10 06:44:54;;;;;;;2.65;2.33;;;20.10;97.20;;;;;;1707576;29;20195;-67
2022/07/10 06:45:45;;;;;;;3.88;2.72;;;20.10;97.20;;;;;;1707513;29;20206;-67
2022/07/10 06:46:37;;;;;;;6.80;3.03;;;20.10;97.20;;;;;;1707241;29;20565;-68
2022/07/10 06:48:53;;;;;;;3.28;2.50;;;20.10;97.20;;;;;;1700024;29;20678;-67
2022/07/10 06:49:45;;;;;;;3.17;2.67;;;20.10;97.20;;;;;;1700043;29;20207;-67
2022/07/10 06:50:37;;;;;;;3.00;2.80;;;20.10;97.20;;;;;;1699988;29;20303;-67
2022/07/10 06:51:28;;;;;;;3.25;2.58;;;20.10;97.20;;;;;;1700055;29;20210;-67
2022/07/10 06:52:20;;;;;;;2.70;2.50;;;20.10;97.20;;;;;;1700036;29;20238;-67
2022/07/10 06:53:11;;;;;;;3.88;2.60;;;20.10;97.20;;;;;;1699873;29;20227;-67
2022/07/10 06:54:02;;;;;;;4.15;3.05;;;20.10;97.20;;;;;;1700089;29;20214;-68
2022/07/10 06:54:55;;;;;;;5.17;3.07;;;20.10;97.20;;;;;;1705226;28;20197;-69
2022/07/10 06:55:46;;;;;;;5.25;2.50;;;20.10;97.20;;;;;;1707498;29;20450;-68
2022/07/10 06:56:38;;;;;;;3.33;2.37;;;20.10;97.20;;;;;;1707139;29;20717;-68
2022/07/10 06:57:29;;;;;;;3.42;2.80;;;20.10;97.20;;;;;;1707440;28;20206;-67
2022/07/10 06:58:20;;;;;;;4.47;2.50;;;20.20;97.20;;;;;;1708942;28;20659;-67
2022/07/10 06:59:11;;;;;;;2.95;2.42;;;20.20;97.20;;;;;;1708314;28;20463;-68
2022/07/10 07:00:05;;;;;;;3.60;2.87;;;20.20;97.20;;;;;;1707406;29;20297;-68
2022/07/10 07:00:55;;;;;;;2.40;2.20;;;20.20;97.20;;;;;;1713469;28;20938;-67
2022/07/10 07:01:47;;;;;;;4.10;2.73;;;20.20;97.20;;;;;;1714128;28;20618;-67
2022/07/10 07:02:38;;;;;;;3.28;2.30;;;20.20;97.20;;;;;;1713992;28;20217;-67
2022/07/10 07:03:30;;;;;;;5.15;2.70;;;20.20;97.20;;;;;;1713970;28;20625;-67
2022/07/10 07:04:22;;;;;;;3.15;2.85;;;20.30;97.20;;;;;;1712870;28;20556;-67
2022/07/10 07:05:15;;;;;;;4.32;2.95;;;20.30;97.20;;;;;;1707535;29;20207;-67
2022/07/10 07:06:05;;;;;;;3.63;2.75;;;20.30;97.20;;;;;;1707278;29;20202;-67
2022/07/10 07:06:56;;;;;;;3.27;2.63;;;20.30;97.20;;;;;;1707112;29;20205;-69
2022/07/10 07:07:48;;;;;;;3.10;2.70;;;20.30;97.20;;;;;;1707203;29;20478;-67
2022/07/10 07:08:39;;;;;;;2.47;2.15;;;20.40;97.20;;;;;;1707403;29;20696;-67
2022/07/10 07:09:31;;;;;;;3.60;2.80;;;20.40;97.20;;;;;;1707537;29;20612;-67
2022/07/10 07:10:21;;;;;;;3.20;2.90;;;20.40;97.20;;;;;;1707421;29;20206;-67
2022/07/10 07:11:13;;;;;;;3.30;3.00;;;20.40;97.20;;;;;;1707456;29;20293;-67
2022/07/10 07:12:05;;;;;;;3.22;2.60;;;20.40;97.20;;;;;;1710415;28;20216;-68
2022/07/10 07:12:56;;;;;;;3.03;2.70;;;20.50;97.20;;;;;;1713878;28;20543;-69
2022/07/10 07:13:47;;;;;;;3.08;2.40;;;20.50;97.20;;;;;;1714040;28;20216;-68
2022/07/10 07:14:39;;;;;;;4.83;3.17;;;20.50;97.20;;;;;;1714161;28;20216;-67
2022/07/10 07:15:30;;;;;;;3.00;2.70;;;20.60;97.20;;;;;;1714037;28;20205;-67
2022/07/10 07:16:37;;;;;;;3.05;2.40;;;20.60;97.20;;;;;;1713976;28;20206;-68
2022/07/10 07:17:33;;;;;;;6.53;2.95;;;20.60;97.20;;;;;;1707381;29;20210;-68
2022/07/10 07:18:31;;;;;;;4.60;2.28;;;20.70;97.20;;;;;;1707269;29;20207;-68
2022/07/10 07:19:30;;;;;;;3.30;2.92;;;20.70;97.20;;;;;;1707614;28;20203;-67
2022/07/10 07:23:55;;;;;;;6.20;2.53;;;20.80;97.20;;;;;;1707882;29;20198;-68
2022/07/10 07:24:46;;;;;;;3.85;2.50;;;20.70;97.20;;;;;;1707449;29;20207;-69
2022/07/10 07:25:40;;;;;;;3.40;2.20;;;20.70;97.20;;;;;;1707538;29;20203;-68
2022/07/10 07:26:30;;;;;;;3.85;2.10;;;20.70;97.20;;;;;;1707384;29;20229;-67
2022/07/10 07:27:22;;;;;;;3.73;2.37;;;20.70;97.20;;;;;;1707188;29;20210;-67
2022/07/10 07:28:15;;;;;;;2.55;2.35;;;20.70;97.20;;;;;;1707150;28;20716;-67
2022/07/10 07:29:07;;;;;;;3.78;2.22;;;20.70;97.20;;;;;;1707361;29;20289;-67
2022/07/10 07:30:00;;;;;;;3.70;2.17;;;20.70;97.20;;;;;;1707323;29;20681;-66
2022/07/10 07:30:52;;;;;;;2.28;1.90;;;20.70;97.20;;;;;;1707264;29;20293;-67
2022/07/10 07:31:43;;;;;;;6.20;2.60;;;20.70;97.20;;;;;;1707291;29;20301;-67
2022/07/10 07:32:35;;;;;;;5.30;2.38;;;20.70;97.20;;;;;;1707318;29;20206;-66
2022/07/10 07:33:26;;;;;;;2.42;2.22;;;20.70;97.20;;;;;;1707152;29;20230;-66
2022/07/10 07:34:18;;;;;;;3.87;2.23;;;20.70;97.20;;;;;;1707106;29;20301;-66
2022/07/10 07:35:11;;;;;;;4.88;2.50;;;20.70;97.20;;;;;;1707374;29;20206;-66
2022/07/10 07:36:03;;;;;;;3.35;2.22;;;20.70;97.20;;;;;;1707257;29;20210;-67
2022/07/10 07:36:54;;;;;;;3.33;2.25;;;20.60;97.20;;;;;;1707098;29;20608;-67
2022/07/10 07:37:47;;;;;;;2.83;2.57;;;20.60;97.20;;;;;;1707358;29;20630;-67
2022/07/10 07:38:37;;;;;;;5.40;2.63;;;20.60;97.20;;;;;;1707360;28;20218;-67
2022/07/10 07:39:29;;;;;;;3.90;2.40;;;20.60;97.20;;;;;;1707323;29;20745;-67
2022/07/10 07:40:22;;;;;;;2.65;2.03;;;20.70;97.20;;;;;;1707275;29;20207;-68
2022/07/10 07:41:15;;;;;;;5.03;2.60;;;20.60;97.20;;;;;;1713429;28;20251;-66
2022/07/10 07:42:05;;;;;;;2.80;2.13;;;20.60;97.20;;;;;;1720712;28;20205;-66
2022/07/10 07:42:57;;;;;;;3.20;2.37;;;20.60;97.20;;;;;;1720583;28;20203;-67
2022/07/10 07:43:48;;;;;;;3.33;2.33;;;20.60;97.20;;;;;;1720714;28;20550;-67
2022/07/10 07:44:40;;;;;;;5.40;2.37;;;20.60;97.20;;;;;;1720665;28;20316;-67
2022/07/10 07:45:31;;;;;;;2.63;2.00;;;20.60;97.20;;;;;;1720649;28;20201;-66
2022/07/10 07:46:24;;;;;;;4.43;2.50;;;20.50;97.20;;;;;;1720631;28;20215;-66
2022/07/10 07:47:14;;;;;;;5.03;2.30;;;20.50;97.20;;;;;;1720252;28;20820;-67
2022/07/10 07:48:07;;;;;;;4.83;2.50;;;20.50;97.20;;;;;;1720535;28;20515;-67
2022/07/10 07:48:58;;;;;;;3.47;2.25;;;20.50;97.20;;;;;;1720630;28;20240;-66
2022/07/10 07:49:49;;;;;;;3.77;2.10;;;20.50;97.20;;;;;;1720734;28;20656;-66
2022/07/10 07:50:42;;;;;;;4.25;2.30;;;20.50;97.20;;;;;;1720703;28;20576;-66
2022/07/10 07:51:34;;;;;;;2.58;2.38;;;20.40;97.20;;;;;;1720639;28;20208;-66
2022/07/10 07:52:25;;;;;;;3.13;2.15;;;20.40;97.20;;;;;;1720614;28;20346;-66
2022/07/10 07:53:17;;;;;;;3.65;2.72;;;20.40;97.20;;;;;;1717613;28;20309;-67
2022/07/10 07:54:07;;;;;;;7.28;2.50;;;20.30;97.20;;;;;;1713953;28;20217;-66
2022/07/10 07:54:59;;;;;;;2.50;2.10;;;20.30;97.20;;;;;;1713886;28;20276;-67
2022/07/10 07:55:50;;;;;;;2.83;2.63;;;20.30;97.20;;;;;;1713897;28;20213;-67
2022/07/10 07:56:42;;;;;;;3.33;2.37;;;20.20;97.20;;;;;;1713625;28;20285;-67
2022/07/10 07:57:32;;;;;;;2.55;1.90;;;20.20;97.20;;;;;;1713775;28;20206;-67
2022/07/10 07:58:24;;;;;;;6.20;2.27;;;20.20;97.20;;;;;;1713744;28;20288;-67
2022/07/10 07:59:15;;;;;;;2.90;2.03;;;20.20;97.20;;;;;;1713859;28;20552;-66
2022/07/10 08:00:10;;;;;;;2.60;2.20;;;20.20;97.20;;;;;;1713961;28;20202;-66
2022/07/10 08:01:02;;;;;;;2.30;1.92;;;20.20;97.20;;;;;;1713878;28;20201;-66
2022/07/10 08:01:53;;;;;;;3.15;2.33;;;20.20;97.20;;;;;;1713774;28;20682;-66
2022/07/10 08:02:45;;;;;;;4.33;2.33;;;20.20;97.20;;;;;;1715017;28;20576;-67
2022/07/10 08:03:35;;;;;;;2.97;2.00;;;20.30;97.20;;;;;;1715205;28;20561;-67
2022/07/10 08:04:27;;;;;;;5.87;2.37;;;20.30;97.20;;;;;;1715248;28;20206;-66
2022/07/10 08:05:19;;;;;;;3.75;1.80;;;20.40;97.20;;;;;;1715200;28;20205;-66
2022/07/10 08:06:12;;;;;;;2.05;1.95;;;20.40;97.20;;;;;;1715153;28;20240;-66
2022/07/10 08:07:04;;;;;;;4.53;2.10;;;20.50;97.20;;;;;;1714886;28;20209;-66
2022/07/10 08:07:58;;;;;;;3.28;1.60;;;20.50;97.20;;;;;;1714964;28;20198;-66
2022/07/10 08:08:49;;;;;;;2.65;1.73;;;20.60;97.20;;;;;;1715153;28;20201;-68
2022/07/10 08:09:41;;;;;;;4.00;1.80;;;20.70;97.20;;;;;;1715214;28;20206;-67
2022/07/10 08:10:32;;;;;;;2.40;1.80;;;20.70;97.20;;;;;;1715124;28;20232;-67
2022/07/10 08:11:24;;;;;;;2.05;1.85;;;20.80;97.20;;;;;;1715190;28;20206;-69
2022/07/10 08:12:15;;;;;;;2.67;1.88;;;20.80;97.20;;;;;;1715052;28;20214;-67
2022/07/10 08:13:07;;;;;;;5.33;2.10;;;20.90;97.20;;;;;;1715064;28;20540;-68
2022/07/10 08:13:57;;;;;;;3.20;1.95;;;20.90;97.20;;;;;;1715013;28;20209;-67
2022/07/10 08:14:49;;;;;;;3.47;2.67;;;21.00;97.20;;;;;;1715123;28;20209;-67
2022/07/10 08:15:40;;;;;;;3.35;2.70;;;21.10;97.20;;;;;;1715124;28;20932;-67
2022/07/10 08:16:32;;;;;;;3.87;3.07;;;21.10;97.20;;;;;;1715035;28;20665;-67
2022/07/10 08:17:22;;;;;;;5.95;2.95;;;21.20;97.20;;;;;;1715165;28;20210;-67
2022/07/10 08:18:14;;;;;;;3.40;2.70;;;21.20;97.20;;;;;;1714978;28;20284;-66
2022/07/10 08:19:05;;;;;;;2.50;2.30;;;21.30;97.20;;;;;;1715093;28;20206;-67
2022/07/10 08:19:57;;;;;;;4.10;2.20;;;21.30;97.20;;;;;;1715056;28;20218;-67
2022/07/10 08:20:48;;;;;;;5.38;2.10;;;21.40;97.20;;;;;;1715080;28;20452;-67
2022/07/10 08:21:41;;;;;;;3.47;2.30;;;21.40;97.20;;;;;;1715273;28;20280;-69
2022/07/10 08:22:32;;;;;;;3.67;2.20;;;21.50;97.20;;;;;;1715437;28;20216;-67
2022/07/10 08:23:24;;;;;;;2.17;1.98;;;21.50;97.20;;;;;;1715012;28;20217;-67
2022/07/10 08:24:15;;;;;;;4.30;1.83;;;21.50;97.20;;;;;;1714955;28;20290;-66
2022/07/10 08:25:07;;;;;;;2.10;1.90;;;21.50;97.20;;;;;;1715027;28;20306;-67
2022/07/10 08:25:58;;;;;;;5.78;2.20;;;21.50;97.20;;;;;;1715028;28;20224;-66
2022/07/10 08:26:50;;;;;;;1.70;1.60;;;21.60;97.20;;;;;;1716535;28;20285;-66
2022/07/10 08:27:41;;;;;;;2.03;1.80;;;21.60;97.20;;;;;;1721708;28;20301;-66
2022/07/10 08:28:33;;;;;;;4.43;1.87;;;21.60;97.20;;;;;;1721367;28;20233;-67
2022/07/10 08:29:24;;;;;;;4.32;1.95;;;21.60;97.20;;;;;;1721702;28;20448;-66
2022/07/10 08:30:15;;;;;;;2.60;1.97;;;21.70;97.20;;;;;;1721658;28;20228;-66
2022/07/10 08:31:06;;;;;;;3.25;1.98;;;21.70;97.20;;;;;;1721642;28;20455;-67
2022/07/10 08:31:58;;;;;;;3.57;2.03;;;21.70;97.20;;;;;;1721714;28;20292;-67
2022/07/10 08:32:49;;;;;;;3.00;2.05;;;21.70;97.20;;;;;;1720011;28;20456;-66
2022/07/10 08:33:41;;;;;;;2.83;2.50;;;21.70;97.20;;;;;;1715088;28;20201;-66
2022/07/10 08:34:32;;;;;;;3.78;2.67;;;21.70;97.20;;;;;;1715002;28;20665;-67
2022/07/10 08:35:24;;;;;;;5.18;2.67;;;21.70;97.20;;;;;;1715078;28;20209;-67
2022/07/10 08:36:15;;;;;;;2.40;2.00;;;21.70;97.20;;;;;;1714881;28;20208;-67
2022/07/10 08:37:08;;;;;;;4.50;2.40;;;21.70;97.20;;;;;;1714825;28;20285;-67
2022/07/10 08:37:59;;;;;;;2.28;1.90;;;21.70;97.20;;;;;;1716264;28;20202;-67
2022/07/10 08:38:51;;;;;;;2.63;1.70;;;21.70;97.20;;;;;;1721722;28;20194;-67
2022/07/10 08:39:42;;;;;;;4.32;2.38;;;21.60;97.20;;;;;;1721830;28;20205;-67
2022/07/10 08:40:36;;;;;;;2.30;1.70;;;21.60;97.20;;;;;;1721719;28;20197;-67
2022/07/10 08:41:27;;;;;;;3.80;2.10;;;21.60;97.20;;;;;;1721827;28;20880;-67
2022/07/10 08:42:19;;;;;;;2.40;1.80;;;21.50;97.20;;;;;;1721691;28;20610;-68
2022/07/10 08:43:10;;;;;;;3.40;2.17;;;21.50;97.20;;;;;;1721634;28;20735;-68
2022/07/10 08:44:02;;;;;;;5.70;2.10;;;21.50;97.20;;;;;;1721757;28;20573;-68
2022/07/10 08:44:53;;;;;;;2.50;2.10;;;21.50;97.20;;;;;;1721671;28;20545;-68
2022/07/10 08:45:44;;;;;;;3.17;2.30;;;21.50;97.20;;;;;;1721689;28;20623;-68
2022/07/10 08:46:35;;;;;;;2.28;1.65;;;21.40;97.20;;;;;;1721298;28;20591;-67
2022/07/10 08:47:30;;;;;;;2.25;1.60;;;21.40;97.20;;;;;;1721654;28;20209;-67
2022/07/10 08:48:23;;;;;;;2.35;1.70;;;21.40;97.20;;;;;;1721283;28;20259;-67
2022/07/10 08:49:17;;;;;;;3.55;1.80;;;21.40;97.20;;;;;;1714814;28;20241;-68
2022/07/10 08:50:17;;;;;;;4.65;1.80;;;21.40;97.20;;;;;;1714922;28;20213;-67
2022/07/10 08:51:15;;;;;;;2.47;1.70;;;21.40;97.20;;;;;;1714914;28;20202;-67
2022/07/10 08:52:12;;;;;;;2.20;1.80;;;21.50;97.20;;;;;;1714957;28;20296;-67
2022/07/10 08:53:09;;;;;;;5.80;1.95;;;21.50;97.20;;;;;;1713731;28;20712;-68
2022/07/10 08:54:00;;;;;;;2.88;1.73;;;21.60;97.20;;;;;;1717132;28;20599;-68
2022/07/10 08:54:53;;;;;;;4.18;2.10;;;21.70;97.20;;;;;;1722080;28;20205;-68
2022/07/10 08:55:45;;;;;;;3.83;1.92;;;21.70;97.20;;;;;;1721940;28;20244;-67
2022/07/10 08:56:36;;;;;;;7.50;1.88;;;21.80;97.20;;;;;;1721452;28;20234;-67
2022/07/10 08:57:31;;;;;;;2.90;2.10;;;21.80;97.20;;;;;;1721505;28;20209;-67
2022/07/10 08:58:23;;;;;;;2.53;1.70;;;21.80;97.20;;;;;;1721568;28;20236;-67
2022/07/10 08:59:16;;;;;;;2.65;1.92;;;21.80;97.20;;;;;;1721887;28;20205;-69
2022/07/10 09:00:09;;;;;;;2.58;1.55;;;21.90;97.20;;;;;;1721880;28;20684;-67
2022/07/10 09:01:01;;;;;;;2.92;2.05;;;21.90;97.20;;;;;;1721955;28;20566;-67
2022/07/10 09:01:53;;;;;;;4.15;1.90;;;21.80;97.20;;;;;;1721729;28;20209;-69
2022/07/10 09:02:45;;;;;;;2.85;1.75;;;21.80;97.20;;;;;;1721788;28;20197;-69
2022/07/10 09:03:37;;;;;;;3.22;1.70;;;21.80;97.20;;;;;;1721691;28;20664;-67
2022/07/10 09:04:29;;;;;;;4.45;2.20;;;21.80;97.20;;;;;;1721689;28;20284;-67
2022/07/10 09:05:20;;;;;;;4.55;2.22;;;21.80;97.20;;;;;;1721850;28;20202;-68
2022/07/10 09:06:11;;;;;;;3.50;2.20;;;21.80;97.20;;;;;;1721610;28;20193;-68
2022/07/10 09:07:04;;;;;;;4.72;2.42;;;21.90;97.20;;;;;;1721429;28;20228;-68
2022/07/10 09:07:57;;;;;;;3.20;2.30;;;21.90;97.20;;;;;;1721504;28;20204;-67
2022/07/10 09:09:03;;;;;;;4.70;2.10;;;22.00;97.20;;;;;;1721747;28;20229;-67
2022/07/10 09:09:56;;;;;;;2.55;1.88;;;22.00;97.20;;;;;;1721550;28;20201;-68
2022/07/10 09:10:47;;;;;;;4.32;1.80;;;22.10;97.20;;;;;;1721689;28;20212;-68
2022/07/10 09:11:42;;;;;;;2.55;1.67;;;22.10;97.20;;;;;;1721828;28;20225;-68
2022/07/10 09:12:50;;;;;;;2.10;1.83;;;22.10;97.20;;;;;;1721587;28;20247;-67
2022/07/10 09:13:50;;;;;;;3.20;1.70;;;22.10;97.20;;;;;;1720760;28;20201;-67
2022/07/10 09:14:41;;;;;;;4.38;2.03;;;22.10;97.20;;;;;;1721327;28;20263;-67
2022/07/10 09:15:34;;;;;;;2.90;2.13;;;22.10;97.20;;;;;;1721599;28;20248;-67
2022/07/10 09:16:27;;;;;;;4.65;2.15;;;22.10;97.20;;;;;;1721426;28;20205;-68
2022/07/10 09:17:20;;;;;;;2.42;2.03;;;22.10;97.20;;;;;;1721310;28;20309;-68
2022/07/10 09:18:10;;;;;;;3.35;2.00;;;22.10;97.20;;;;;;1721665;28;20224;-67
2022/07/10 09:19:17;;;;;;;3.67;2.23;;;22.20;97.20;;;;;;1721685;28;20247;-67
2022/07/10 09:20:24;;;;;;;3.08;2.40;;;22.20;97.20;;;;;;1721701;28;20351;-68
2022/07/10 09:21:16;;;;;;;2.30;2.05;;;22.20;97.20;;;;;;1721882;28;20567;-67
2022/07/10 09:22:09;;;;;;;2.45;2.15;;;22.30;97.20;;;;;;1721539;28;20205;-67
2022/07/10 09:23:14;;;;;;;2.35;2.10;;;22.30;97.20;;;;;;1721488;28;20221;-70
2022/07/10 09:24:09;;;;;;;3.13;2.45;;;22.40;97.20;;;;;;1722107;28;20206;-68
2022/07/10 09:25:12;;;;;;;3.25;2.90;;;22.40;97.20;;;;;;1718733;28;20229;-68
2022/07/10 09:26:05;;;;;;;4.72;3.17;;;22.50;97.20;;;;;;1719305;28;20673;-68
2022/07/10 09:27:00;;;;;;;4.22;3.58;;;22.50;97.20;;;;;;1721289;28;20582;-69
2022/07/10 09:27:53;;;;;;;3.47;2.55;;;22.50;97.20;;;;;;1721461;28;20205;-68
2022/07/10 09:28:45;;;;;;;5.82;2.95;;;22.50;97.20;;;;;;1721701;28;20765;-69
2022/07/10 09:29:45;;;;;;;5.25;2.58;;;22.50;97.20;;;;;;1721339;28;20205;-69
2022/07/10 09:30:38;;;;;;;5.38;2.20;;;22.50;97.20;;;;;;1721508;28;20645;-68
2022/07/10 09:31:48;;;;;;;2.45;1.95;;;22.50;97.20;;;;;;1721517;28;20664;-68
2022/07/10 09:32:40;;;;;;;3.03;2.22;;;22.50;97.20;;;;;;1721422;28;20197;-68
2022/07/10 09:33:34;;;;;;;2.88;1.75;;;22.50;97.20;;;;;;1721789;28;20252;-69
2022/07/10 09:34:40;;;;;;;3.00;1.88;;;22.60;97.20;;;;;;1721640;28;20205;-69
2022/07/10 09:36:41;;;;;;;2.28;1.70;;;22.60;97.20;;;;;;1721303;28;20799;-69
2022/07/10 09:37:32;;;;;;;2.33;2.13;;;22.60;97.20;;;;;;1720961;28;20213;-69
2022/07/10 09:38:26;;;;;;;2.60;1.83;;;22.60;97.20;;;;;;1721138;28;20205;-69
2022/07/10 09:39:16;;;;;;;4.32;2.22;;;22.60;97.20;;;;;;1721114;28;20781;-69